createdAt,value
2023-04-08T00:02:34.321Z,102124.06
2023-04-08T00:05:21.125Z,102120.06
2023-04-08T00:08:09.077Z,102122.03
2023-04-08T00:10:55.584Z,102120.28
2023-04-08T00:13:42.092Z,102122.31
2023-04-08T00:16:28.316Z,102119.56
2023-04-08T00:19:14.789Z,102115.44
2023-04-08T00:22:01.198Z,102122.16
2023-04-08T00:24:49.152Z,102120.91
2023-04-08T00:27:35.737Z,102116.78
2023-04-08T00:30:22.258Z,102126.25
2023-04-08T00:33:08.840Z,102124.03
2023-04-08T00:35:55.532Z,102124.81
2023-04-08T00:38:41.893Z,102124.28
2023-04-08T00:41:29.605Z,102125.88
2023-04-08T00:44:16.050Z,102127.34
2023-04-08T00:47:02.753Z,102124.25
2023-04-08T00:49:49.289Z,102135.00
2023-04-08T00:52:35.684Z,102130.44
2023-04-08T00:55:22.289Z,102136.25
2023-04-08T00:58:10.032Z,102139.34
2023-04-08T01:01:03.121Z,102140.50
2023-04-08T01:03:58.982Z,102140.78
2023-04-08T01:06:50.517Z,102140.34
2023-04-08T01:09:40.143Z,102143.75
2023-04-08T01:12:28.282Z,102140.47
2023-04-08T01:15:17.187Z,102146.19
2023-04-08T01:18:08.323Z,102148.44
2023-04-08T01:20:55.691Z,102142.91
2023-04-08T01:23:55.866Z,102145.06
2023-04-08T01:26:44.877Z,102145.50
2023-04-08T01:29:31.960Z,102143.63
2023-04-08T01:32:19.307Z,102145.81
2023-04-08T01:35:07.211Z,102150.78
2023-04-08T01:37:55.234Z,102146.22
2023-04-08T01:40:43.666Z,102161.13
2023-04-08T01:43:33.784Z,102157.59
2023-04-08T01:46:21.667Z,102158.00
2023-04-08T01:49:09.241Z,102170.13
2023-04-08T01:51:57.860Z,102172.84
2023-04-08T01:54:43.966Z,102173.56
2023-04-08T01:57:34.738Z,102185.03
2023-04-08T02:00:26.969Z,102182.34
2023-04-08T02:03:14.206Z,102185.47
2023-04-08T02:06:00.830Z,102182.22
2023-04-08T02:08:46.988Z,102182.63
2023-04-08T02:11:33.277Z,102181.50
2023-04-08T02:14:19.941Z,102176.38
2023-04-08T02:17:12.470Z,102173.56
2023-04-08T02:20:06.728Z,102179.38
2023-04-08T02:23:00.819Z,102176.25
2023-04-08T02:25:49.636Z,102174.25
2023-04-08T02:28:37.701Z,102166.44
2023-04-08T02:31:25.810Z,102165.13
2023-04-08T02:34:15.123Z,102162.56
2023-04-08T02:37:01.638Z,102163.28
2023-04-08T02:39:47.724Z,102166.94
2023-04-08T02:42:34.139Z,102167.28
2023-04-08T02:45:20.382Z,102166.16
2023-04-08T02:48:09.683Z,102177.03
2023-04-08T02:50:57.515Z,102167.63
2023-04-08T02:53:44.086Z,102171.78
2023-04-08T02:56:30.623Z,102178.38
2023-04-08T02:59:16.820Z,102177.91
2023-04-08T03:02:02.860Z,102184.00
2023-04-08T03:04:49.519Z,102189.16
2023-04-08T03:07:36.966Z,102182.31
2023-04-08T03:10:22.980Z,102181.22
2023-04-08T03:13:09.190Z,102183.47
2023-04-08T03:15:55.366Z,102183.06
2023-04-08T03:18:41.742Z,102188.44
2023-04-08T03:21:27.832Z,102192.72
2023-04-08T03:24:15.570Z,102183.75
2023-04-08T03:27:01.936Z,102188.22
2023-04-08T03:29:48.450Z,102204.19
2023-04-08T03:32:34.892Z,102210.78
2023-04-08T03:35:24.713Z,102217.34
2023-04-08T03:38:11.101Z,102220.75
2023-04-08T03:40:58.952Z,102222.44
2023-04-08T03:43:45.834Z,102227.03
2023-04-08T03:46:32.335Z,102233.56
2023-04-08T03:49:18.598Z,102226.97
2023-04-08T03:52:05.636Z,102205.94
2023-04-08T03:54:52.106Z,102201.53
2023-04-08T03:57:39.768Z,102205.50
2023-04-08T04:00:26.299Z,102208.66
2023-04-08T04:03:13.352Z,102206.09
2023-04-08T04:06:00.000Z,102207.06
2023-04-08T04:08:46.427Z,102205.28
2023-04-08T04:11:32.666Z,102213.00
2023-04-08T04:14:20.384Z,102208.94
2023-04-08T04:17:06.764Z,102211.19
2023-04-08T04:19:53.074Z,102209.66
2023-04-08T04:22:39.297Z,102217.03
2023-04-08T04:25:25.829Z,102222.44
2023-04-08T04:28:11.840Z,102213.22
2023-04-08T04:30:59.741Z,102219.19
2023-04-08T04:33:47.226Z,102220.59
2023-04-08T04:36:33.511Z,102219.59
2023-04-08T04:39:20.054Z,102227.56
2023-04-08T04:42:06.644Z,102240.72
2023-04-08T04:44:54.053Z,102244.72
2023-04-08T04:47:42.054Z,102244.91
2023-04-08T04:50:28.571Z,102244.75
2023-04-08T04:53:14.799Z,102245.34
2023-04-08T04:56:01.803Z,102256.00
2023-04-08T04:58:48.294Z,102257.13
2023-04-08T05:01:34.461Z,102256.44
2023-04-08T05:04:22.538Z,102251.16
2023-04-08T05:07:08.970Z,102247.63
2023-04-08T05:09:55.419Z,102255.28
2023-04-08T05:12:42.022Z,102246.31
2023-04-08T05:15:28.957Z,102259.28
2023-04-08T05:18:15.456Z,102266.75
2023-04-08T05:21:03.220Z,102263.81
2023-04-08T05:23:50.987Z,102265.09
2023-04-08T05:26:38.721Z,102267.97
2023-04-08T05:29:25.542Z,102272.66
2023-04-08T05:32:12.133Z,102274.34
2023-04-08T05:34:58.320Z,102281.88
2023-04-08T05:37:46.016Z,102284.41
2023-04-08T05:40:32.225Z,102281.88
2023-04-08T05:43:18.678Z,102289.56
2023-04-08T05:46:07.923Z,102289.16
2023-04-08T05:48:54.047Z,102295.50
2023-04-08T05:51:40.403Z,102289.88
2023-04-08T05:54:28.149Z,102292.38
2023-04-08T05:57:14.258Z,102294.09
2023-04-08T06:00:00.825Z,102292.66
2023-04-08T06:02:47.496Z,102296.50
2023-04-08T06:05:33.844Z,102295.72
2023-04-08T06:08:21.097Z,102297.59
2023-04-08T06:11:08.752Z,102306.69
2023-04-08T06:13:55.419Z,102308.69
2023-04-08T06:16:41.776Z,102313.44
2023-04-08T06:19:27.963Z,102310.41
2023-04-08T06:22:14.141Z,102312.97
2023-04-08T06:25:00.698Z,102318.25
2023-04-08T06:27:48.623Z,102323.25
2023-04-08T06:30:34.835Z,102322.31
2023-04-08T06:33:21.558Z,102321.47
2023-04-08T06:36:08.938Z,102329.22
2023-04-08T06:38:55.375Z,102330.84
2023-04-08T06:41:41.584Z,102334.09
2023-04-08T06:44:44.245Z,102337.97
2023-04-08T06:47:30.747Z,102350.63
2023-04-08T06:50:17.025Z,102342.47
2023-04-08T06:53:03.113Z,102343.59
2023-04-08T06:55:49.666Z,102345.34
2023-04-08T06:58:36.152Z,102343.88
2023-04-08T07:01:24.964Z,102354.31
2023-04-08T07:04:11.398Z,102355.31
2023-04-08T07:06:57.809Z,102358.44
2023-04-08T07:09:45.913Z,102368.69
2023-04-08T07:12:32.156Z,102361.69
2023-04-08T07:15:18.273Z,102363.78
2023-04-08T07:18:06.132Z,102376.50
2023-04-08T07:20:53.064Z,102373.41
2023-04-08T07:23:39.137Z,102372.53
2023-04-08T07:26:25.773Z,102386.75
2023-04-08T07:29:11.950Z,102382.63
2023-04-08T07:31:58.187Z,102392.47
2023-04-08T07:34:45.837Z,102392.25
2023-04-08T07:37:31.899Z,102388.56
2023-04-08T07:40:18.596Z,102400.50
2023-04-08T07:43:04.894Z,102408.19
2023-04-08T07:45:51.274Z,102395.69
2023-04-08T07:48:37.916Z,102395.97
2023-04-08T07:51:25.600Z,102403.78
2023-04-08T07:54:12.498Z,102400.44
2023-04-08T07:56:59.832Z,102409.47
2023-04-08T07:59:46.020Z,102412.50
2023-04-08T08:02:32.211Z,102410.31
2023-04-08T08:05:18.775Z,102414.38
2023-04-08T08:08:07.578Z,102426.91
2023-04-08T08:10:53.925Z,102416.94
2023-04-08T08:13:40.396Z,102424.41
2023-04-08T08:16:29.483Z,102424.13
2023-04-08T08:19:15.972Z,102427.72
2023-04-08T08:22:02.338Z,102431.38
2023-04-08T08:24:50.009Z,102424.75
2023-04-08T08:27:36.436Z,102431.53
2023-04-08T08:30:23.017Z,102438.97
2023-04-08T08:33:09.415Z,102436.88
2023-04-08T08:35:57.916Z,102438.88
2023-04-08T08:38:44.617Z,102443.22
2023-04-08T08:41:36.491Z,102439.94
2023-04-08T08:44:23.084Z,102441.97
2023-04-08T08:47:09.547Z,102450.47
2023-04-08T08:49:56.183Z,102445.38
2023-04-08T08:52:49.586Z,102459.56
2023-04-08T08:56:02.168Z,102458.50
2023-04-08T08:58:43.913Z,102452.91
2023-04-08T09:01:34.626Z,102465.06
2023-04-08T09:04:23.059Z,102461.09
2023-04-08T09:07:11.426Z,102466.75
2023-04-08T09:09:59.443Z,102477.88
2023-04-08T09:12:55.472Z,102483.84
2023-04-08T09:16:02.165Z,102492.94
2023-04-08T09:18:49.017Z,102493.34
2023-04-08T09:21:35.659Z,102499.78
2023-04-08T09:24:30.209Z,102510.47
2023-04-08T09:27:16.776Z,102512.53
2023-04-08T09:30:15.518Z,102511.66
2023-04-08T09:33:07.157Z,102508.66
2023-04-08T09:35:53.995Z,102517.00
2023-04-08T09:38:40.581Z,102514.06
2023-04-08T09:41:29.565Z,102512.91
2023-04-08T09:44:17.709Z,102525.75
2023-04-08T09:47:11.397Z,102529.97
2023-04-08T09:50:03.903Z,102533.31
2023-04-08T09:52:55.127Z,102531.94
2023-04-08T09:55:44.682Z,102531.28
2023-04-08T09:58:39.996Z,102533.06
2023-04-08T10:01:34.105Z,102532.03
2023-04-08T10:04:22.279Z,102538.94
2023-04-08T10:07:10.627Z,102528.31
2023-04-08T10:09:59.501Z,102525.44
2023-04-08T10:12:46.076Z,102535.72
2023-04-08T10:15:33.672Z,102539.03
2023-04-08T10:18:33.750Z,102539.69
2023-04-08T10:21:39.503Z,102541.06
2023-04-08T10:24:27.200Z,102545.59
2023-04-08T10:27:40.676Z,102546.59
2023-04-08T10:30:43.507Z,102533.88
2023-04-08T10:33:34.593Z,102543.34
2023-04-08T10:36:20.842Z,102539.94
2023-04-08T10:39:07.142Z,102538.16
2023-04-08T10:41:55.848Z,102531.13
2023-04-08T10:44:45.966Z,102532.03
2023-04-08T10:47:32.296Z,102529.38
2023-04-08T10:50:20.012Z,102528.41
2023-04-08T10:53:06.506Z,102522.84
2023-04-08T10:55:53.712Z,102524.78
2023-04-08T10:58:50.652Z,102529.69
2023-04-08T11:01:44.955Z,102537.88
2023-04-08T11:04:31.286Z,102538.00
2023-04-08T11:07:21.759Z,102529.28
2023-04-08T11:10:09.349Z,102533.28
2023-04-08T11:12:56.341Z,102526.69
2023-04-08T11:15:44.341Z,102529.44
2023-04-08T11:18:32.190Z,102525.97
2023-04-08T11:21:18.716Z,102515.78
2023-04-08T11:24:11.863Z,102523.13
2023-04-08T11:26:59.200Z,102522.44
2023-04-08T11:29:46.212Z,102515.00
2023-04-08T11:32:35.439Z,102521.38
2023-04-08T11:35:21.864Z,102507.88
2023-04-08T11:38:09.300Z,102513.13
2023-04-08T11:40:55.998Z,102512.56
2023-04-08T11:43:52.695Z,102522.06
2023-04-08T11:46:40.999Z,102515.69
2023-04-08T11:49:29.302Z,102517.31
2023-04-08T11:52:15.826Z,102516.09
2023-04-08T11:55:01.866Z,102519.53
2023-04-08T11:57:48.187Z,102504.22
2023-04-08T12:00:34.537Z,102512.16
2023-04-08T12:03:21.311Z,102513.63
2023-04-08T12:06:10.046Z,102512.56
2023-04-08T12:08:57.675Z,102519.75
2023-04-08T12:11:43.833Z,102523.81
2023-04-08T12:14:30.677Z,102523.31
2023-04-08T12:17:19.246Z,102516.56
2023-04-08T12:20:07.655Z,102512.13
2023-04-08T12:22:56.154Z,102518.13
2023-04-08T12:25:43.026Z,102519.56
2023-04-08T12:28:31.882Z,102516.03
2023-04-08T12:31:18.344Z,102507.75
2023-04-08T12:34:04.654Z,102508.13
2023-04-08T12:36:51.250Z,102507.84
2023-04-08T12:39:38.963Z,102504.78
2023-04-08T12:42:25.320Z,102501.44
2023-04-08T12:45:11.735Z,102502.50
2023-04-08T12:47:58.307Z,102500.59
2023-04-08T12:50:44.816Z,102512.94
2023-04-08T12:53:31.142Z,102502.81
2023-04-08T12:56:19.006Z,102510.53
2023-04-08T12:59:05.593Z,102514.03
2023-04-08T13:01:52.196Z,102507.16
2023-04-08T13:04:38.574Z,102509.59
2023-04-08T13:07:24.738Z,102517.66
2023-04-08T13:10:11.464Z,102509.41
2023-04-08T13:12:59.336Z,102507.53
2023-04-08T13:15:45.795Z,102508.06
2023-04-08T13:18:32.209Z,102510.53
2023-04-08T13:21:18.522Z,102500.94
2023-04-08T13:24:09.924Z,102510.69
2023-04-08T13:27:04.817Z,102507.97
2023-04-08T13:29:52.389Z,102504.81
2023-04-08T13:32:39.066Z,102507.63
2023-04-08T13:35:25.532Z,102509.66
2023-04-08T13:38:13.664Z,102497.94
2023-04-08T13:41:00.144Z,102486.78
2023-04-08T13:43:47.142Z,102494.22
2023-04-08T13:46:35.776Z,102499.06
2023-04-08T13:49:22.171Z,102487.03
2023-04-08T13:52:09.049Z,102492.72
2023-04-08T13:54:55.699Z,102486.53
2023-04-08T13:57:41.991Z,102496.53
2023-04-08T14:00:28.548Z,102482.50
2023-04-08T14:03:16.782Z,102486.66
2023-04-08T14:06:03.060Z,102485.91
2023-04-08T14:08:50.163Z,102488.41
2023-04-08T14:11:38.610Z,102487.31
2023-04-08T14:14:25.379Z,102485.75
2023-04-08T14:17:12.071Z,102491.03
2023-04-08T14:20:01.020Z,102492.94
2023-04-08T14:22:47.207Z,102485.06
2023-04-08T14:25:33.763Z,102486.25
2023-04-08T14:28:20.079Z,102479.53
2023-04-08T14:31:06.816Z,102480.22
2023-04-08T14:33:53.338Z,102473.44
2023-04-08T14:36:41.076Z,102482.13
2023-04-08T14:39:28.232Z,102477.91
2023-04-08T14:42:16.539Z,102478.88
2023-04-08T14:45:03.343Z,102472.81
2023-04-08T14:47:50.034Z,102463.47
2023-04-08T14:50:36.484Z,102469.63
2023-04-08T14:53:24.357Z,102471.53
2023-04-08T14:56:11.249Z,102464.56
2023-04-08T14:58:57.587Z,102461.09
2023-04-08T15:01:44.951Z,102460.13
2023-04-08T15:04:31.688Z,102457.41
2023-04-08T15:07:18.354Z,102462.50
2023-04-08T15:10:06.579Z,102462.47
2023-04-08T15:12:52.753Z,102465.06
2023-04-08T15:15:39.042Z,102468.84
2023-04-08T15:18:25.657Z,102460.75
2023-04-08T15:21:12.211Z,102460.34
2023-04-08T15:23:59.149Z,102467.09
2023-04-08T15:26:47.247Z,102471.63
2023-04-08T15:29:33.735Z,102464.88
2023-04-08T15:32:20.348Z,102466.84
2023-04-08T15:35:07.793Z,102466.06
2023-04-08T15:37:55.704Z,102467.91
2023-04-08T15:40:43.257Z,102468.41
2023-04-08T15:43:31.222Z,102466.94
2023-04-08T15:46:24.217Z,102469.66
2023-04-08T15:49:10.800Z,102467.56
2023-04-08T15:52:00.435Z,102467.75
2023-04-08T15:54:47.157Z,102473.06
2023-04-08T15:57:33.276Z,102470.94
2023-04-08T16:00:21.488Z,102470.31
2023-04-08T16:03:11.975Z,102473.91
2023-04-08T16:06:01.035Z,102462.19
2023-04-08T16:08:52.633Z,102472.63
2023-04-08T16:11:39.528Z,102474.22
2023-04-08T16:14:26.088Z,102471.97
2023-04-08T16:17:13.674Z,102470.59
2023-04-08T16:20:00.469Z,102466.06
2023-04-08T16:22:46.733Z,102466.78
2023-04-08T16:25:33.380Z,102472.69
2023-04-08T16:28:19.907Z,102467.38
2023-04-08T16:31:06.941Z,102467.75
2023-04-08T16:33:54.952Z,102470.75
2023-04-08T16:36:43.850Z,102470.78
2023-04-08T16:39:30.775Z,102469.16
2023-04-08T16:42:21.061Z,102473.88
2023-04-08T16:45:10.437Z,102469.25
2023-04-08T16:48:00.499Z,102468.47
2023-04-08T16:50:48.282Z,102474.16
2023-04-08T16:53:35.718Z,102478.56
2023-04-08T16:56:22.202Z,102475.47
2023-04-08T16:59:08.865Z,102477.31
2023-04-08T17:01:55.372Z,102482.28
2023-04-08T17:04:42.005Z,102483.00
2023-04-08T17:07:31.093Z,102489.06
2023-04-08T17:10:17.729Z,102490.88
2023-04-08T17:13:05.220Z,102486.63
2023-04-08T17:15:51.779Z,102486.59
2023-04-08T17:18:38.345Z,102492.06
2023-04-08T17:21:27.107Z,102490.81
2023-04-08T17:24:14.800Z,102491.84
2023-04-08T17:27:01.277Z,102492.91
2023-04-08T17:29:47.527Z,102488.94
2023-04-08T17:32:33.954Z,102489.72
2023-04-08T17:35:20.688Z,102485.44
2023-04-08T17:38:10.607Z,102488.44
2023-04-08T17:40:58.749Z,102485.56
2023-04-08T17:43:45.698Z,102483.03
2023-04-08T17:46:33.844Z,102481.84
2023-04-08T17:49:21.134Z,102480.88
2023-04-08T17:52:08.208Z,102481.56
2023-04-08T17:54:56.086Z,102473.84
2023-04-08T17:57:43.948Z,102478.00
2023-04-08T18:00:30.347Z,102473.34
2023-04-08T18:03:16.757Z,102480.84
2023-04-08T18:06:03.541Z,102474.66
2023-04-08T18:08:51.775Z,102480.25
2023-04-08T18:11:38.173Z,102480.53
2023-04-08T18:14:26.303Z,102480.56
2023-04-08T18:17:14.325Z,102484.03
2023-04-08T18:20:00.595Z,102486.16
2023-04-08T18:22:48.458Z,102478.16
2023-04-08T18:25:34.965Z,102482.88
2023-04-08T18:28:22.464Z,102484.22
2023-04-08T18:31:10.414Z,102481.44
2023-04-08T18:33:57.013Z,102479.72
2023-04-08T18:36:43.250Z,102485.78
2023-04-08T18:39:29.662Z,102480.56
2023-04-08T18:42:15.732Z,102479.81
2023-04-08T18:45:02.361Z,102479.28
2023-04-08T18:47:49.733Z,102475.38
2023-04-08T18:50:37.034Z,102487.91
2023-04-08T18:53:23.559Z,102487.13
2023-04-08T18:56:15.398Z,102483.44
2023-04-08T18:59:01.409Z,102485.69
2023-04-08T19:01:47.637Z,102491.50
2023-04-08T19:04:35.458Z,102486.50
2023-04-08T19:07:21.939Z,102497.03
2023-04-08T19:10:09.551Z,102495.81
2023-04-08T19:12:55.820Z,102494.50
2023-04-08T19:15:42.268Z,102496.09
2023-04-08T19:18:28.702Z,102501.38
2023-04-08T19:21:16.509Z,102496.81
2023-04-08T19:24:04.794Z,102499.50
2023-04-08T19:26:53.017Z,102487.47
2023-04-08T19:29:39.571Z,102499.47
2023-04-08T19:32:26.430Z,102500.69
2023-04-08T19:35:13.196Z,102498.22
2023-04-08T19:38:01.115Z,102493.78
2023-04-08T19:40:47.943Z,102498.44
2023-04-08T19:43:34.338Z,102505.34
2023-04-08T19:46:20.936Z,102502.06
2023-04-08T19:49:08.013Z,102493.94
2023-04-08T19:51:55.851Z,102500.38
2023-04-08T19:54:44.181Z,102500.91
2023-04-08T19:57:30.430Z,102501.25
2023-04-08T20:00:16.848Z,102506.38
2023-04-08T20:03:03.428Z,102507.63
2023-04-08T20:05:50.530Z,102512.72
2023-04-08T20:08:36.985Z,102513.91
2023-04-08T20:11:24.772Z,102522.28
2023-04-08T20:14:11.223Z,102521.72
2023-04-08T20:16:57.726Z,102519.03
2023-04-08T20:19:44.123Z,102529.38
2023-04-08T20:22:30.832Z,102525.06
2023-04-08T20:25:17.284Z,102532.59
2023-04-08T20:28:05.324Z,102540.41
2023-04-08T20:30:54.003Z,102528.50
2023-04-08T20:33:43.928Z,102527.00
2023-04-08T20:36:30.898Z,102533.69
2023-04-08T20:39:17.991Z,102530.66
2023-04-08T20:42:05.380Z,102528.44
2023-04-08T20:44:53.695Z,102528.13
2023-04-08T20:47:40.544Z,102523.09
2023-04-08T20:50:28.456Z,102516.75
2023-04-08T20:53:14.535Z,102512.41
2023-04-08T20:56:00.720Z,102515.00
2023-04-08T20:58:47.069Z,102510.94
2023-04-08T21:01:35.006Z,102512.09
2023-04-08T21:04:22.348Z,102503.66
2023-04-08T21:07:08.453Z,102512.47
2023-04-08T21:09:54.747Z,102514.25
2023-04-08T21:12:41.324Z,102513.97
2023-04-08T21:15:33.632Z,102507.34
2023-04-08T21:18:21.179Z,102504.78
2023-04-08T21:21:07.722Z,102497.72
2023-04-08T21:23:54.297Z,102499.09
2023-04-08T21:26:40.623Z,102475.53
2023-04-08T21:29:27.117Z,102471.72
2023-04-08T21:32:13.361Z,102473.69
2023-04-08T21:35:01.456Z,102474.91
2023-04-08T21:37:47.724Z,102474.00
2023-04-08T21:40:34.065Z,102475.41
2023-04-08T21:43:20.469Z,102485.22
2023-04-08T21:46:06.917Z,102487.09
2023-04-08T21:48:53.499Z,102472.22
2023-04-08T21:51:41.358Z,102477.94
2023-04-08T21:54:27.844Z,102478.88
2023-04-08T21:57:13.974Z,102477.09
2023-04-08T22:00:00.467Z,102484.00
2023-04-08T22:02:47.142Z,102494.22
2023-04-08T22:05:33.960Z,102482.91
2023-04-08T22:08:22.912Z,102481.03
2023-04-08T22:11:09.648Z,102481.97
2023-04-08T22:13:55.956Z,102490.03
2023-04-08T22:16:43.028Z,102483.44
2023-04-08T22:19:29.305Z,102485.13
2023-04-08T22:22:15.825Z,102485.50
2023-04-08T22:25:03.450Z,102488.94
2023-04-08T22:27:49.588Z,102492.16
2023-04-08T22:30:36.303Z,102487.19
2023-04-08T22:33:22.455Z,102493.50
2023-04-08T22:36:08.885Z,102494.56
2023-04-08T22:38:54.971Z,102481.97
2023-04-08T22:41:42.321Z,102480.19
2023-04-08T22:44:28.804Z,102488.41
2023-04-08T22:47:15.527Z,102488.88
2023-04-08T22:50:01.859Z,102489.19
2023-04-08T22:52:48.227Z,102493.00
2023-04-08T22:55:34.620Z,102498.16
2023-04-08T22:58:22.168Z,102492.91
2023-04-08T23:01:12.809Z,102490.69
2023-04-08T23:03:58.986Z,102494.28
2023-04-08T23:06:45.682Z,102488.81
2023-04-08T23:09:32.012Z,102491.25
2023-04-08T23:12:18.370Z,102487.28
2023-04-08T23:15:07.483Z,102498.88
2023-04-08T23:17:53.858Z,102490.81
2023-04-08T23:20:40.221Z,102489.56
2023-04-08T23:23:27.093Z,102484.97
2023-04-08T23:26:18.361Z,102486.75
2023-04-08T23:29:04.751Z,102483.53
2023-04-08T23:31:52.337Z,102486.19
2023-04-08T23:34:38.971Z,102488.03
2023-04-08T23:37:25.693Z,102489.38
2023-04-08T23:40:12.599Z,102493.22
2023-04-08T23:42:59.079Z,102495.41
2023-04-08T23:45:45.210Z,102493.47
2023-04-08T23:48:33.046Z,102491.63
2023-04-08T23:51:19.568Z,102487.56
2023-04-08T23:54:06.529Z,102487.00
2023-04-08T23:56:52.538Z,102479.97
2023-04-08T23:59:38.667Z,102486.16
